createdAt,value
2022-10-05T00:00:18.974Z,99.99
2022-10-05T00:01:19.024Z,99.99
2022-10-05T00:02:18.965Z,99.99
2022-10-05T00:03:18.950Z,99.99
2022-10-05T00:04:18.942Z,99.99
2022-10-05T00:05:19.042Z,99.99
2022-10-05T00:06:18.943Z,99.99
2022-10-05T00:07:18.924Z,99.99
2022-10-05T00:08:18.931Z,99.99
2022-10-05T00:09:18.910Z,99.99
2022-10-05T00:10:18.924Z,99.99
2022-10-05T00:11:18.926Z,99.99
2022-10-05T00:12:18.881Z,99.99
2022-10-05T00:13:18.886Z,99.99
2022-10-05T00:14:18.862Z,99.99
2022-10-05T00:15:18.885Z,99.99
2022-10-05T00:16:18.892Z,99.99
2022-10-05T00:17:18.831Z,99.99
2022-10-05T00:18:18.829Z,99.99
2022-10-05T00:19:18.812Z,99.99
2022-10-05T00:20:18.841Z,99.99
2022-10-05T00:21:18.800Z,99.99
2022-10-05T00:22:18.829Z,99.99
2022-10-05T00:23:18.809Z,99.99
2022-10-05T00:24:18.793Z,99.99
2022-10-05T00:25:18.777Z,99.99
2022-10-05T00:26:18.784Z,99.99
2022-10-05T00:27:18.755Z,99.99
2022-10-05T00:28:18.803Z,99.99
2022-10-05T00:29:18.761Z,99.99
2022-10-05T00:30:18.732Z,99.99
2022-10-05T00:31:18.857Z,99.99
2022-10-05T00:32:18.707Z,99.99
2022-10-05T00:33:18.698Z,99.99
2022-10-05T00:34:18.685Z,99.99
2022-10-05T00:35:18.694Z,99.99
2022-10-05T00:36:18.688Z,99.99
2022-10-05T00:37:18.696Z,99.99
2022-10-05T00:38:18.701Z,99.99
2022-10-05T00:39:18.641Z,99.99
2022-10-05T00:40:18.653Z,99.99
2022-10-05T00:41:18.658Z,99.99
2022-10-05T00:42:18.614Z,99.99
2022-10-05T00:43:18.652Z,99.99
2022-10-05T00:44:18.609Z,99.99
2022-10-05T00:45:18.601Z,99.99
2022-10-05T00:46:18.677Z,99.99
2022-10-05T00:47:18.589Z,99.99
2022-10-05T00:48:18.572Z,99.99
2022-10-05T00:49:18.588Z,99.99
2022-10-05T00:50:18.558Z,99.99
2022-10-05T00:51:18.553Z,99.99
2022-10-05T00:52:18.625Z,99.99
2022-10-05T00:53:18.547Z,99.99
2022-10-05T00:54:18.567Z,99.99
2022-10-05T00:55:18.509Z,99.99
2022-10-05T00:56:18.532Z,99.99
2022-10-05T00:57:18.501Z,99.99
2022-10-05T00:58:18.491Z,99.99
2022-10-05T00:59:18.508Z,99.99
2022-10-05T01:00:18.468Z,99.99
2022-10-05T01:01:18.522Z,99.99
2022-10-05T01:02:18.507Z,99.99
2022-10-05T01:03:18.446Z,99.99
2022-10-05T01:04:18.436Z,99.99
2022-10-05T01:05:18.453Z,99.99
2022-10-05T01:06:18.423Z,99.99
2022-10-05T01:07:18.409Z,99.99
2022-10-05T01:08:18.410Z,99.99
2022-10-05T01:09:18.396Z,99.99
2022-10-05T01:10:18.413Z,99.99
2022-10-05T01:11:18.424Z,99.99
2022-10-05T01:12:18.374Z,99.99
2022-10-05T01:13:18.355Z,99.99
2022-10-05T01:14:18.357Z,99.99
2022-10-05T01:15:18.341Z,99.99
2022-10-05T01:16:18.367Z,99.99
2022-10-05T01:17:18.375Z,99.99
2022-10-05T01:18:18.331Z,99.99
2022-10-05T01:19:18.310Z,99.99
2022-10-05T01:20:18.328Z,99.99
2022-10-05T01:21:18.317Z,99.99
2022-10-05T01:22:18.303Z,99.99
2022-10-05T01:23:18.303Z,99.99
2022-10-05T01:24:18.264Z,99.99
2022-10-05T01:25:18.856Z,99.99
2022-10-05T01:26:18.249Z,99.99
2022-10-05T01:27:18.235Z,99.99
2022-10-05T01:28:18.300Z,99.99
2022-10-05T01:29:18.236Z,99.99
2022-10-05T01:30:18.200Z,99.99
2022-10-05T01:31:18.210Z,99.99
2022-10-05T01:32:18.195Z,99.99
2022-10-05T01:33:18.181Z,99.99
2022-10-05T01:34:18.190Z,99.99
2022-10-05T01:35:18.193Z,99.99
2022-10-05T01:36:18.163Z,99.99
2022-10-05T01:37:18.163Z,99.99
2022-10-05T01:38:18.136Z,99.99
2022-10-05T01:39:18.125Z,99.99
2022-10-05T01:40:18.120Z,99.99
2022-10-05T01:41:18.159Z,99.99
2022-10-05T01:42:18.114Z,99.99
2022-10-05T01:43:18.143Z,99.99
2022-10-05T01:44:18.085Z,99.99
2022-10-05T01:45:18.083Z,99.99
2022-10-05T01:46:18.154Z,99.99
2022-10-05T01:47:18.070Z,99.99
2022-10-05T01:48:18.069Z,99.99
2022-10-05T01:49:18.073Z,99.99
2022-10-05T01:50:18.036Z,99.99
2022-10-05T01:51:18.019Z,99.99
2022-10-05T01:52:18.035Z,99.99
2022-10-05T01:53:18.012Z,99.99
2022-10-05T01:54:18.000Z,99.99
2022-10-05T01:55:18.012Z,99.99
2022-10-05T01:56:17.992Z,99.99
2022-10-05T01:57:17.994Z,99.99
2022-10-05T01:58:17.975Z,99.99
2022-10-05T01:59:17.960Z,99.99
2022-10-05T02:00:17.945Z,99.99
2022-10-05T02:01:18.091Z,99.99
2022-10-05T02:02:17.986Z,99.99
2022-10-05T02:03:17.923Z,99.99
2022-10-05T02:04:37.271Z,99.99
2022-10-05T02:05:18.905Z,99.99
2022-10-05T02:06:17.890Z,99.99
2022-10-05T02:07:17.903Z,99.99
2022-10-05T02:08:17.871Z,99.99
2022-10-05T02:09:17.859Z,99.99
2022-10-05T02:10:17.898Z,99.99
2022-10-05T02:11:17.857Z,99.99
2022-10-05T02:12:17.833Z,99.99
2022-10-05T02:13:17.866Z,99.99
2022-10-05T02:14:17.832Z,99.99
2022-10-05T02:15:17.813Z,99.99
2022-10-05T02:16:17.881Z,99.99
2022-10-05T02:17:17.794Z,99.99
2022-10-05T02:18:17.793Z,99.99
2022-10-05T02:19:17.799Z,99.99
2022-10-05T02:20:17.769Z,99.99
2022-10-05T02:21:17.762Z,99.99
2022-10-05T02:22:17.761Z,99.99
2022-10-05T02:23:17.745Z,99.99
2022-10-05T02:24:17.728Z,99.99
2022-10-05T02:25:17.749Z,99.99
2022-10-05T02:26:17.731Z,99.99
2022-10-05T02:27:17.703Z,99.99
2022-10-05T02:28:17.767Z,99.99
2022-10-05T02:29:17.693Z,99.99
2022-10-05T02:30:17.691Z,99.99
2022-10-05T02:31:17.713Z,99.99
2022-10-05T02:32:17.894Z,99.99
2022-10-05T02:33:17.727Z,99.99
2022-10-05T02:34:17.650Z,99.99
2022-10-05T02:35:17.643Z,99.99
2022-10-05T02:36:17.664Z,99.99
2022-10-05T02:37:17.611Z,99.99
2022-10-05T02:38:17.612Z,99.99
2022-10-05T02:39:17.600Z,99.99
2022-10-05T02:40:17.583Z,99.99
2022-10-05T02:41:17.594Z,99.99
2022-10-05T02:42:18.444Z,99.99
2022-10-05T02:43:17.571Z,99.99
2022-10-05T02:44:17.561Z,99.99
2022-10-05T02:45:17.561Z,99.99
2022-10-05T02:46:17.598Z,99.99
2022-10-05T02:47:17.538Z,99.99
2022-10-05T02:48:17.596Z,99.99
2022-10-05T02:49:17.544Z,99.99
2022-10-05T02:50:17.516Z,99.99
2022-10-05T02:51:17.495Z,99.99
2022-10-05T02:52:17.498Z,99.99
2022-10-05T02:53:17.507Z,99.99
2022-10-05T02:54:17.483Z,99.99
2022-10-05T02:55:17.491Z,99.99
2022-10-05T02:56:17.469Z,99.99
2022-10-05T02:57:17.455Z,99.99
2022-10-05T02:58:17.451Z,99.99
2022-10-05T02:59:17.455Z,99.99
2022-10-05T03:00:17.464Z,99.99
2022-10-05T03:01:17.544Z,99.99
2022-10-05T03:02:17.556Z,99.99
2022-10-05T03:03:17.408Z,99.99
2022-10-05T03:04:17.402Z,99.99
2022-10-05T03:05:17.444Z,99.99
2022-10-05T03:06:17.375Z,99.99
2022-10-05T03:07:17.402Z,99.99
2022-10-05T03:08:17.358Z,99.99
2022-10-05T03:09:17.357Z,99.99
2022-10-05T03:10:17.370Z,99.99
2022-10-05T03:11:17.385Z,99.99
2022-10-05T03:12:17.341Z,99.99
2022-10-05T03:13:17.342Z,99.99
2022-10-05T03:14:17.316Z,99.99
2022-10-05T03:15:17.309Z,99.99
2022-10-05T03:16:17.390Z,99.99
2022-10-05T03:17:17.345Z,99.99
2022-10-05T03:18:17.281Z,99.99
2022-10-05T03:19:17.278Z,99.99
2022-10-05T03:20:17.300Z,99.99
2022-10-05T03:21:17.273Z,99.99
2022-10-05T03:22:17.253Z,99.99
2022-10-05T03:23:17.340Z,99.99
2022-10-05T03:24:17.280Z,99.99
2022-10-05T03:25:17.270Z,99.99
2022-10-05T03:26:17.229Z,99.99
2022-10-05T03:27:17.228Z,99.99
2022-10-05T03:28:17.300Z,99.99
2022-10-05T03:29:17.209Z,99.99
2022-10-05T03:30:17.220Z,99.99
2022-10-05T03:31:17.269Z,99.99
2022-10-05T03:32:17.200Z,99.99
2022-10-05T03:33:17.168Z,99.99
2022-10-05T03:34:17.165Z,99.99
2022-10-05T03:35:17.162Z,99.99
2022-10-05T03:36:17.157Z,99.99
2022-10-05T03:37:17.171Z,99.99
2022-10-05T03:38:17.142Z,99.99
2022-10-05T03:39:17.127Z,99.99
2022-10-05T03:40:17.123Z,99.99
2022-10-05T03:41:17.120Z,99.99
2022-10-05T03:42:17.117Z,99.99
2022-10-05T03:43:17.117Z,99.99
2022-10-05T03:44:17.102Z,99.99
2022-10-05T03:45:17.076Z,99.99
2022-10-05T03:46:17.146Z,99.99
2022-10-05T03:47:17.127Z,99.99
2022-10-05T03:48:17.058Z,99.99
2022-10-05T03:49:17.078Z,99.99
2022-10-05T03:50:17.047Z,99.99
2022-10-05T03:51:17.043Z,99.99
2022-10-05T03:52:17.029Z,99.99
2022-10-05T03:53:17.039Z,99.99
2022-10-05T03:54:17.081Z,99.99
2022-10-05T03:55:17.002Z,99.99
2022-10-05T03:56:17.017Z,99.99
2022-10-05T03:57:16.976Z,99.99
2022-10-05T03:58:17.003Z,99.99
2022-10-05T03:59:16.968Z,99.99
2022-10-05T04:00:16.958Z,99.99
2022-10-05T04:01:17.078Z,99.99
2022-10-05T04:02:17.025Z,99.99
2022-10-05T04:03:16.975Z,99.99
2022-10-05T04:04:16.952Z,99.99
2022-10-05T04:05:16.921Z,99.99
2022-10-05T04:06:16.959Z,99.99
2022-10-05T04:07:16.914Z,99.99
2022-10-05T04:08:16.894Z,99.99
2022-10-05T04:09:16.916Z,99.99
2022-10-05T04:10:16.896Z,99.99
2022-10-05T04:11:16.880Z,99.99
2022-10-05T04:12:16.879Z,99.99
2022-10-05T04:13:16.894Z,99.99
2022-10-05T04:14:16.846Z,99.99
2022-10-05T04:15:19.014Z,99.99
2022-10-05T04:16:16.883Z,99.99
2022-10-05T04:17:16.881Z,99.99
2022-10-05T04:18:16.824Z,99.99
2022-10-05T04:19:16.823Z,99.99
2022-10-05T04:20:16.795Z,99.99
2022-10-05T04:21:21.342Z,99.99
2022-10-05T04:22:17.819Z,99.99
2022-10-05T04:23:16.798Z,99.99
2022-10-05T04:24:16.762Z,99.99
2022-10-05T04:25:16.858Z,99.99
2022-10-05T04:26:16.755Z,99.99
2022-10-05T04:27:16.756Z,99.99
2022-10-05T04:28:16.777Z,99.99
2022-10-05T04:29:16.748Z,99.99
2022-10-05T04:30:16.743Z,99.99
2022-10-05T04:31:16.768Z,99.99
2022-10-05T04:32:16.700Z,99.99
2022-10-05T04:33:16.705Z,99.99
2022-10-05T04:34:16.758Z,99.99
2022-10-05T04:35:16.728Z,99.99
2022-10-05T04:36:16.684Z,99.99
2022-10-05T04:37:16.687Z,99.99
2022-10-05T04:38:16.667Z,99.99
2022-10-05T04:39:16.648Z,99.99
2022-10-05T04:40:16.648Z,99.99
2022-10-05T04:41:16.675Z,99.99
2022-10-05T04:42:16.631Z,99.99
2022-10-05T04:43:16.615Z,99.99
2022-10-05T04:44:16.615Z,99.99
2022-10-05T04:45:16.605Z,99.99
2022-10-05T04:46:16.618Z,99.99
2022-10-05T04:47:16.614Z,99.99
2022-10-05T04:48:16.580Z,99.99
2022-10-05T04:49:16.571Z,99.99
2022-10-05T04:50:16.569Z,99.99
2022-10-05T04:51:16.562Z,99.99
2022-10-05T04:52:16.565Z,99.99
2022-10-05T04:53:16.551Z,99.99
2022-10-05T04:54:16.903Z,99.99
2022-10-05T04:55:16.538Z,99.99
2022-10-05T04:56:16.579Z,99.99
2022-10-05T04:57:16.630Z,99.99
2022-10-05T04:58:16.568Z,99.99
2022-10-05T04:59:17.396Z,99.99
2022-10-05T05:00:16.487Z,99.99
2022-10-05T05:01:16.558Z,99.99
2022-10-05T05:02:16.472Z,99.99
2022-10-05T05:03:16.461Z,99.99
2022-10-05T05:04:16.461Z,99.99
2022-10-05T05:05:16.545Z,99.99
2022-10-05T05:06:18.061Z,99.99
2022-10-05T05:07:16.437Z,99.99
2022-10-05T05:08:16.431Z,99.99
2022-10-05T05:09:16.420Z,99.99
2022-10-05T05:10:16.400Z,99.99
2022-10-05T05:11:20.076Z,99.99
2022-10-05T05:12:17.388Z,99.99
2022-10-05T05:13:16.379Z,99.99
2022-10-05T05:14:16.500Z,99.99
2022-10-05T05:15:16.426Z,99.99
2022-10-05T05:16:16.517Z,99.99
2022-10-05T05:17:16.386Z,99.99
2022-10-05T05:18:16.377Z,99.99
2022-10-05T05:19:16.348Z,99.99
2022-10-05T05:20:16.337Z,99.99
2022-10-05T05:21:16.328Z,99.99
2022-10-05T05:22:16.322Z,99.99
2022-10-05T05:23:16.333Z,99.99
2022-10-05T05:24:16.317Z,99.99
2022-10-05T05:25:16.286Z,99.99
2022-10-05T05:26:16.519Z,99.99
2022-10-05T05:27:16.294Z,99.99
2022-10-05T05:28:16.399Z,99.99
2022-10-05T05:29:16.266Z,99.99
2022-10-05T05:30:16.270Z,99.99
2022-10-05T05:31:16.329Z,99.99
2022-10-05T05:32:16.242Z,99.99
2022-10-05T05:33:16.249Z,99.99
2022-10-05T05:34:16.228Z,99.99
2022-10-05T05:35:16.251Z,99.99
2022-10-05T05:36:20.751Z,99.99
2022-10-05T05:37:17.201Z,99.99
2022-10-05T05:38:16.207Z,99.99
2022-10-05T05:39:16.207Z,99.99
2022-10-05T05:40:16.193Z,99.99
2022-10-05T05:41:16.201Z,99.99
2022-10-05T05:42:16.155Z,99.99
2022-10-05T05:43:16.161Z,99.99
2022-10-05T05:44:16.145Z,99.99
2022-10-05T05:45:16.207Z,99.99
2022-10-05T05:46:16.195Z,99.99
2022-10-05T05:47:16.227Z,99.99
2022-10-05T05:48:16.122Z,99.99
2022-10-05T05:49:16.146Z,99.99
2022-10-05T05:50:16.138Z,99.99
2022-10-05T05:51:16.117Z,99.99
2022-10-05T05:52:16.097Z,99.99
2022-10-05T05:53:16.104Z,99.99
2022-10-05T05:54:16.075Z,99.99
2022-10-05T05:55:16.070Z,99.99
2022-10-05T05:56:16.099Z,99.99
2022-10-05T05:57:16.063Z,99.99
2022-10-05T05:58:16.051Z,99.99
2022-10-05T05:59:16.323Z,99.99
2022-10-05T06:00:16.063Z,99.99
2022-10-05T06:01:30.928Z,99.99
2022-10-05T06:02:17.278Z,99.99
2022-10-05T06:03:16.122Z,99.99
2022-10-05T06:04:16.017Z,99.99
2022-10-05T06:05:15.989Z,99.99
2022-10-05T06:06:16.009Z,99.99
2022-10-05T06:07:15.985Z,99.99
2022-10-05T06:08:15.979Z,99.99
2022-10-05T06:09:15.978Z,99.99
2022-10-05T06:10:15.972Z,99.99
2022-10-05T06:11:15.964Z,99.99
2022-10-05T06:12:15.963Z,99.99
2022-10-05T06:13:15.969Z,99.99
2022-10-05T06:14:15.972Z,99.99
2022-10-05T06:15:15.924Z,99.99
2022-10-05T06:16:15.988Z,99.99
2022-10-05T06:17:15.905Z,99.99
2022-10-05T06:18:15.911Z,99.99
2022-10-05T06:19:15.912Z,99.99
2022-10-05T06:20:15.882Z,99.99
2022-10-05T06:21:15.909Z,99.99
2022-10-05T06:22:15.856Z,99.99
2022-10-05T06:23:15.882Z,99.99
2022-10-05T06:24:15.878Z,99.99
2022-10-05T06:25:15.850Z,99.99
2022-10-05T06:26:15.828Z,99.99
2022-10-05T06:27:15.836Z,99.99
2022-10-05T06:28:15.953Z,99.99
2022-10-05T06:29:15.818Z,99.99
2022-10-05T06:30:15.822Z,99.99
2022-10-05T06:31:15.854Z,99.99
2022-10-05T06:32:15.792Z,99.99
2022-10-05T06:33:15.787Z,99.99
2022-10-05T06:34:15.765Z,99.99
2022-10-05T06:35:15.790Z,99.99
2022-10-05T06:36:15.736Z,99.99
2022-10-05T06:37:15.738Z,99.99
2022-10-05T06:38:15.725Z,99.99
2022-10-05T06:39:15.744Z,99.83
2022-10-05T06:40:15.705Z,98.71
2022-10-05T06:41:15.740Z,98.35
2022-10-05T06:42:15.697Z,98.08
2022-10-05T06:43:15.694Z,97.88
2022-10-05T06:44:15.696Z,98.24
2022-10-05T06:45:15.689Z,97.56
2022-10-05T06:46:15.752Z,97.55
2022-10-05T06:47:15.669Z,97.80
2022-10-05T06:48:15.678Z,98.93
2022-10-05T06:49:15.649Z,99.80
2022-10-05T06:50:15.636Z,99.18
2022-10-05T06:51:15.613Z,99.85
2022-10-05T06:52:15.630Z,99.95
2022-10-05T06:53:15.626Z,99.99
2022-10-05T06:54:15.608Z,99.99
2022-10-05T06:55:15.594Z,99.99
2022-10-05T06:56:15.581Z,99.99
2022-10-05T06:57:15.596Z,99.99
2022-10-05T06:58:15.582Z,99.99
2022-10-05T06:59:15.600Z,99.86
2022-10-05T07:00:15.551Z,99.55
2022-10-05T07:01:15.648Z,99.99
2022-10-05T07:02:15.593Z,99.99
2022-10-05T07:03:15.543Z,99.99
2022-10-05T07:04:23.075Z,99.96
2022-10-05T07:05:15.549Z,99.91
2022-10-05T07:06:15.494Z,99.71
2022-10-05T07:07:15.482Z,98.99
2022-10-05T07:08:15.531Z,99.25
2022-10-05T07:09:15.485Z,99.41
2022-10-05T07:10:15.456Z,98.28
2022-10-05T07:11:15.457Z,97.66
2022-10-05T07:12:15.450Z,98.33
2022-10-05T07:13:15.424Z,97.82
2022-10-05T07:14:15.478Z,98.04
2022-10-05T07:15:15.418Z,97.32
2022-10-05T07:16:15.445Z,97.12
2022-10-05T07:17:15.408Z,96.81
2022-10-05T07:18:15.388Z,96.30
2022-10-05T07:19:15.374Z,96.81
2022-10-05T07:20:15.384Z,95.68
2022-10-05T07:21:15.348Z,95.57
2022-10-05T07:22:15.348Z,96.34
2022-10-05T07:23:15.348Z,96.50
2022-10-05T07:24:15.332Z,96.40
2022-10-05T07:25:15.315Z,96.45
2022-10-05T07:26:15.341Z,96.35
2022-10-05T07:27:15.306Z,95.69
2022-10-05T07:28:15.369Z,96.10
2022-10-05T07:29:15.297Z,93.77
2022-10-05T07:30:15.292Z,89.88
2022-10-05T07:31:15.311Z,86.43
2022-10-05T07:32:15.318Z,83.31
2022-10-05T07:33:15.262Z,80.79
2022-10-05T07:34:15.267Z,77.83
2022-10-05T07:35:15.254Z,75.67
2022-10-05T07:36:15.242Z,75.09
2022-10-05T07:37:15.228Z,75.05
2022-10-05T07:38:15.245Z,73.16
2022-10-05T07:39:15.237Z,72.28
2022-10-05T07:40:15.249Z,75.09
2022-10-05T07:41:15.189Z,74.61
2022-10-05T07:42:15.188Z,73.29
2022-10-05T07:43:15.201Z,72.17
2022-10-05T07:44:15.169Z,72.34
2022-10-05T07:45:15.182Z,74.84
2022-10-05T07:46:15.248Z,76.70
2022-10-05T07:47:15.148Z,78.44
2022-10-05T07:48:15.164Z,80.84
2022-10-05T07:49:15.143Z,82.40
2022-10-05T07:50:15.222Z,84.28
2022-10-05T07:51:15.122Z,85.13
2022-10-05T07:52:15.107Z,86.45
2022-10-05T07:53:15.125Z,87.87
2022-10-05T07:54:15.082Z,88.53
2022-10-05T07:55:15.090Z,88.73
2022-10-05T07:56:15.065Z,88.98
2022-10-05T07:57:15.062Z,89.38
2022-10-05T07:58:15.049Z,90.60
2022-10-05T07:59:15.067Z,90.60
2022-10-05T08:00:15.094Z,90.30
2022-10-05T08:01:15.044Z,91.22
2022-10-05T08:02:15.329Z,90.70
2022-10-05T08:03:15.134Z,90.56
2022-10-05T08:04:15.006Z,91.72
2022-10-05T08:05:15.005Z,91.78
2022-10-05T08:06:14.980Z,90.52
2022-10-05T08:07:15.006Z,91.74
2022-10-05T08:08:16.863Z,91.58
2022-10-05T08:09:15.008Z,91.68
2022-10-05T08:10:14.958Z,91.78
2022-10-05T08:11:14.980Z,92.60
2022-10-05T08:12:14.937Z,93.01
2022-10-05T08:13:14.919Z,92.49
2022-10-05T08:14:14.918Z,93.82
2022-10-05T08:15:14.906Z,93.41
2022-10-05T08:16:15.013Z,93.62
2022-10-05T08:17:14.911Z,93.10
2022-10-05T08:18:14.933Z,93.10
2022-10-05T08:19:14.867Z,93.51
2022-10-05T08:20:14.872Z,93.92
2022-10-05T08:21:14.884Z,93.41
2022-10-05T08:22:14.845Z,93.41
2022-10-05T08:23:14.875Z,93.41
2022-10-05T08:24:14.963Z,94.53
2022-10-05T08:25:14.834Z,94.63
2022-10-05T08:26:14.830Z,95.14
2022-10-05T08:27:14.831Z,93.41
2022-10-05T08:28:14.839Z,94.02
2022-10-05T08:29:14.908Z,94.73
2022-10-05T08:30:14.804Z,94.93
2022-10-05T08:31:14.939Z,94.53
2022-10-05T08:32:14.840Z,95.14
2022-10-05T08:33:14.765Z,94.79
2022-10-05T08:34:14.748Z,94.59
2022-10-05T08:35:14.741Z,94.79
2022-10-05T08:36:14.741Z,94.79
2022-10-05T08:37:14.782Z,94.59
2022-10-05T08:38:14.722Z,93.37
2022-10-05T08:39:14.719Z,93.07
2022-10-05T08:40:14.712Z,92.71
2022-10-05T08:41:14.692Z,92.30
2022-10-05T08:42:14.708Z,93.52
2022-10-05T08:43:14.782Z,94.04
2022-10-05T08:44:14.670Z,93.12
2022-10-05T08:45:14.664Z,92.67
2022-10-05T08:46:14.764Z,93.59
2022-10-05T08:47:14.644Z,92.77
2022-10-05T08:48:14.671Z,93.18
2022-10-05T08:49:14.627Z,93.12
2022-10-05T08:50:14.633Z,94.04
2022-10-05T08:51:14.615Z,93.12
2022-10-05T08:52:22.112Z,93.38
2022-10-05T08:53:14.618Z,90.39
2022-10-05T08:54:14.642Z,90.70
2022-10-05T08:55:14.577Z,91.00
2022-10-05T08:56:19.767Z,90.66
2022-10-05T08:57:15.560Z,91.26
2022-10-05T08:58:14.549Z,90.55
2022-10-05T08:59:14.540Z,91.26
2022-10-05T09:00:14.576Z,92.18
2022-10-05T09:01:14.563Z,90.96
2022-10-05T09:02:14.571Z,92.18
2022-10-05T09:03:14.531Z,91.56
2022-10-05T09:04:14.515Z,91.56
2022-10-05T09:05:14.516Z,91.67
2022-10-05T09:06:14.537Z,92.07
2022-10-05T09:07:14.518Z,92.38
2022-10-05T09:08:14.494Z,91.77
2022-10-05T09:09:14.462Z,91.52
2022-10-05T09:10:14.544Z,90.35
2022-10-05T09:11:14.498Z,90.66
2022-10-05T09:12:14.465Z,90.92
2022-10-05T09:13:14.428Z,90.47
2022-10-05T09:14:14.430Z,89.96
2022-10-05T09:15:25.484Z,89.04
2022-10-05T09:16:15.443Z,89.04
2022-10-05T09:17:14.442Z,88.23
2022-10-05T09:18:14.435Z,87.79
2022-10-05T09:19:14.392Z,87.08
2022-10-05T09:20:14.383Z,86.73
2022-10-05T09:21:14.386Z,87.14
2022-10-05T09:22:14.449Z,86.13
2022-10-05T09:23:14.356Z,86.94
2022-10-05T09:24:14.347Z,85.88
2022-10-05T09:25:14.364Z,86.08
2022-10-05T09:26:14.325Z,85.54
2022-10-05T09:27:14.343Z,83.31
2022-10-05T09:28:14.356Z,82.67
2022-10-05T09:29:14.305Z,82.42
2022-10-05T09:30:14.376Z,81.92
2022-10-05T09:31:14.383Z,81.71
2022-10-05T09:32:16.473Z,81.35
2022-10-05T09:33:14.273Z,81.21
2022-10-05T09:34:14.268Z,81.01
2022-10-05T09:35:14.260Z,81.17
2022-10-05T09:36:14.250Z,79.96
2022-10-05T09:37:14.237Z,80.26
2022-10-05T09:38:14.254Z,79.32
2022-10-05T09:39:14.293Z,78.64
2022-10-05T09:40:14.223Z,79.11
2022-10-05T09:41:14.215Z,78.20
2022-10-05T09:42:14.192Z,77.94
2022-10-05T09:43:14.200Z,79.05
2022-10-05T09:44:15.001Z,76.93
2022-10-05T09:45:18.973Z,78.68
2022-10-05T09:46:15.239Z,78.88
2022-10-05T09:47:14.214Z,79.08
2022-10-05T09:48:14.222Z,79.79
2022-10-05T09:49:14.248Z,79.49
2022-10-05T09:50:14.126Z,78.78
2022-10-05T09:51:14.113Z,79.69
2022-10-05T09:52:18.793Z,77.80
2022-10-05T09:53:15.118Z,78.06
2022-10-05T09:54:14.100Z,77.08
2022-10-05T09:55:14.081Z,76.01
2022-10-05T09:56:14.084Z,74.29
2022-10-05T09:57:14.067Z,74.08
2022-10-05T09:58:14.059Z,72.67
2022-10-05T09:59:14.306Z,73.99
2022-10-05T10:00:14.042Z,71.91
2022-10-05T10:01:32.789Z,72.20
2022-10-05T10:02:15.156Z,73.38
2022-10-05T10:03:14.097Z,73.01
2022-10-05T10:04:14.016Z,73.38
2022-10-05T10:05:14.020Z,72.58
2022-10-05T10:06:14.028Z,73.42
2022-10-05T10:07:13.979Z,74.87
2022-10-05T10:08:14.171Z,74.19
2022-10-05T10:09:13.966Z,76.42
2022-10-05T10:10:13.963Z,75.40
2022-10-05T10:11:13.977Z,76.82
2022-10-05T10:12:13.947Z,76.92
2022-10-05T10:13:13.937Z,76.72
2022-10-05T10:14:14.050Z,76.92
2022-10-05T10:15:13.924Z,77.36
2022-10-05T10:16:14.049Z,77.62
2022-10-05T10:17:13.920Z,76.62
2022-10-05T10:18:13.892Z,76.42
2022-10-05T10:19:13.900Z,77.42
2022-10-05T10:20:13.910Z,77.28
2022-10-05T10:21:13.882Z,76.18
2022-10-05T10:22:13.910Z,76.78
2022-10-05T10:23:13.845Z,75.37
2022-10-05T10:24:13.832Z,74.22
2022-10-05T10:25:13.836Z,74.87
2022-10-05T10:26:13.825Z,76.01
2022-10-05T10:27:13.833Z,75.37
2022-10-05T10:28:13.928Z,75.47
2022-10-05T10:29:13.841Z,76.07
2022-10-05T10:30:13.814Z,74.87
2022-10-05T10:31:13.828Z,73.95
2022-10-05T10:32:13.892Z,72.17
2022-10-05T10:33:13.821Z,72.20
2022-10-05T10:34:13.776Z,73.52
2022-10-05T10:35:13.819Z,72.37
2022-10-05T10:36:13.771Z,71.87
2022-10-05T10:37:13.727Z,72.11
2022-10-05T10:38:13.736Z,73.14
2022-10-05T10:39:13.756Z,73.05
2022-10-05T10:40:13.834Z,73.75
2022-10-05T10:41:13.762Z,72.94
2022-10-05T10:42:13.685Z,72.41
2022-10-05T10:43:13.687Z,71.80
2022-10-05T10:44:13.709Z,72.31
2022-10-05T10:45:13.687Z,72.17
2022-10-05T10:46:13.727Z,74.39
2022-10-05T10:47:13.656Z,73.11
2022-10-05T10:48:13.699Z,71.26
2022-10-05T10:49:13.629Z,71.00
2022-10-05T10:50:13.646Z,70.93
2022-10-05T10:51:13.618Z,70.79
2022-10-05T10:52:13.630Z,71.50
2022-10-05T10:53:13.660Z,71.30
2022-10-05T10:54:13.587Z,72.44
2022-10-05T10:55:13.580Z,72.85
2022-10-05T10:56:13.614Z,71.91
2022-10-05T10:57:13.564Z,72.11
2022-10-05T10:58:16.094Z,71.16
2022-10-05T10:59:13.561Z,71.26
2022-10-05T11:00:13.542Z,72.20
2022-10-05T11:01:13.624Z,71.40
2022-10-05T11:02:13.555Z,72.04
2022-10-05T11:03:13.724Z,73.01
2022-10-05T11:04:13.519Z,72.14
2022-10-05T11:05:13.498Z,70.19
2022-10-05T11:06:13.512Z,71.20
2022-10-05T11:07:13.511Z,69.12
2022-10-05T11:08:13.474Z,69.42
2022-10-05T11:09:14.621Z,70.36
2022-10-05T11:10:13.478Z,70.12
2022-10-05T11:11:13.464Z,70.56
2022-10-05T11:12:13.472Z,70.23
2022-10-05T11:13:13.452Z,70.56
2022-10-05T11:14:13.447Z,70.43
2022-10-05T11:15:13.440Z,66.91
2022-10-05T11:16:15.897Z,66.58
2022-10-05T11:17:14.433Z,66.11
2022-10-05T11:18:13.393Z,62.71
2022-10-05T11:19:13.398Z,63.11
2022-10-05T11:20:13.481Z,64.12
2022-10-05T11:21:13.385Z,65.34
2022-10-05T11:22:13.380Z,66.08
2022-10-05T11:23:13.382Z,62.92
2022-10-05T11:24:13.406Z,62.85
2022-10-05T11:25:13.357Z,60.29
2022-10-05T11:26:13.340Z,59.59
2022-10-05T11:27:13.439Z,59.30
2022-10-05T11:28:14.746Z,60.61
2022-10-05T11:29:13.366Z,57.56
2022-10-05T11:30:13.376Z,56.40
2022-10-05T11:31:13.335Z,56.81
2022-10-05T11:32:13.362Z,54.91
2022-10-05T11:33:13.376Z,56.53
2022-10-05T11:34:13.279Z,57.70
2022-10-05T11:35:13.289Z,55.55
2022-10-05T11:36:13.264Z,54.36
2022-10-05T11:37:13.254Z,56.57
2022-10-05T11:38:13.247Z,57.37
2022-10-05T11:39:13.243Z,55.68
2022-10-05T11:40:13.236Z,55.48
2022-10-05T11:41:13.244Z,54.28
2022-10-05T11:42:13.224Z,55.16
2022-10-05T11:43:13.213Z,56.56
2022-10-05T11:44:13.200Z,56.33
2022-10-05T11:45:13.191Z,56.18
2022-10-05T11:46:13.233Z,56.88
2022-10-05T11:47:13.173Z,56.88
2022-10-05T11:48:13.168Z,57.64
2022-10-05T11:49:13.163Z,57.01
2022-10-05T11:50:13.148Z,56.31
2022-10-05T11:51:13.145Z,58.86
2022-10-05T11:52:13.153Z,59.14
2022-10-05T11:53:13.127Z,56.96
2022-10-05T11:54:13.121Z,57.06
2022-10-05T11:55:13.116Z,56.96
2022-10-05T11:56:13.110Z,56.51
2022-10-05T11:57:13.104Z,55.88
2022-10-05T11:58:13.117Z,54.26
2022-10-05T11:59:13.088Z,53.89
2022-10-05T12:00:13.166Z,56.48
2022-10-05T12:01:13.078Z,55.48
2022-10-05T12:02:13.058Z,55.85
2022-10-05T12:03:13.227Z,55.88
2022-10-05T12:04:13.144Z,55.68
2022-10-05T12:05:13.038Z,55.58
2022-10-05T12:06:13.018Z,54.36
2022-10-05T12:07:13.024Z,55.61
2022-10-05T12:08:13.549Z,56.57
2022-10-05T12:09:13.056Z,54.93
2022-10-05T12:10:13.112Z,53.24
2022-10-05T12:11:12.990Z,53.34
2022-10-05T12:12:13.032Z,54.75
2022-10-05T12:13:13.054Z,54.56
2022-10-05T12:14:12.965Z,55.38
2022-10-05T12:15:12.959Z,56.40
2022-10-05T12:16:12.980Z,55.18
2022-10-05T12:17:12.940Z,56.85
2022-10-05T12:18:12.950Z,54.68
2022-10-05T12:19:12.930Z,53.59
2022-10-05T12:20:12.962Z,54.08
2022-10-05T12:21:12.922Z,55.21
2022-10-05T12:22:12.903Z,54.83
2022-10-05T12:23:12.922Z,56.98
2022-10-05T12:24:12.882Z,56.88
2022-10-05T12:25:12.902Z,57.18
2022-10-05T12:26:12.873Z,57.46
2022-10-05T12:27:12.862Z,56.56
2022-10-05T12:28:12.880Z,56.38
2022-10-05T12:29:12.847Z,56.98
2022-10-05T12:30:12.932Z,57.15
2022-10-05T12:31:12.928Z,56.36
2022-10-05T12:32:12.839Z,56.71
2022-10-05T12:33:12.823Z,57.18
2022-10-05T12:34:12.834Z,56.56
2022-10-05T12:35:12.802Z,56.79
2022-10-05T12:36:12.819Z,57.09
2022-10-05T12:37:12.790Z,57.01
2022-10-05T12:38:12.778Z,57.11
2022-10-05T12:39:12.774Z,57.11
2022-10-05T12:40:12.826Z,57.09
2022-10-05T12:41:12.780Z,56.59
2022-10-05T12:42:12.755Z,57.48
2022-10-05T12:43:12.734Z,57.41
2022-10-05T12:44:12.727Z,57.11
2022-10-05T12:45:12.719Z,57.01
2022-10-05T12:46:12.745Z,57.64
2022-10-05T12:47:12.728Z,59.34
2022-10-05T12:48:12.698Z,58.39
2022-10-05T12:49:12.801Z,60.69
2022-10-05T12:50:12.739Z,58.14
2022-10-05T12:51:12.680Z,59.59
2022-10-05T12:52:12.669Z,60.77